Nearby METAR Reports

 

KSJC - San Jose, California, USA
Distance from station: NØ 14km
Oppdatert: 28/10/2020 05:53
Klart
Klart
 Vind fra calm
Vind: Stille
Temperatur: 17°C
Duggpunkt: 4°C
Fuktighet: 42%
Barometer: 1017.6 hPa
Clouds: Klart
Visibility: 16 km
2020/10/28 04:53 KSJC 280453Z 00000KT 10SM CLR 17/04 A3005 RMK AO2 SLP175 T01720044
KNUQ - Moffett Nas/Mtn, California, USA
Distance from station: N 14km
Oppdatert: 27/10/2020 14:55
NOT Current

 Vind fra calm
Vind: Stille
Temperatur: 10°C
Duggpunkt: -1°C
Fuktighet: 47%
Barometer: 1019.3 hPa
Visibility: 16 km
2020/10/27 13:55 KNUQ 271355Z AUTO 00000KT 10SM 10/M01 A3010 RMK AO2
 
KPAO - Palo Alto, California, USA
Distance from station: NNV 23km
Oppdatert: 28/10/2020 02:47
NOT Current
Klart
Klart
 Vind fra calm
Vind: Stille
Temperatur: 18°C
Duggpunkt: 6°C
Fuktighet: 46%
Barometer: 1016.9 hPa
Clouds: Klart
Visibility: 16 km
2020/10/28 01:47 KPAO 280147Z 00000KT 10SM SKC 18/06 A3003 RMK LAST
KRHV - San Jose/Reid, California, USA
Distance from station: ØNØ 19km
Oppdatert: 28/10/2020 05:50
Klart
Klart
 Vind fra calm
Vind: Stille
Temperatur: 16°C
Duggpunkt: -1°C
Fuktighet: 31%
Barometer: 1017.9 hPa
Clouds: Klart
Visibility: 16 km
2020/10/28 04:50 KRHV 280450Z 00000KT 10SM SKC 16/M01 A3006
 
KOAK - Oakland, California, USA
Distance from station: NNV 50km
Oppdatert: 28/10/2020 05:53
Klart
Klart
 Vind fra V
Vind: V 6 km/h
Temperatur: 18°C
Duggpunkt: 2°C
Fuktighet: 34%
Barometer: 1017.9 hPa
Clouds: Klart
Visibility: 16 km
2020/10/28 04:53 KOAK 280453Z 28003KT 10SM CLR 18/02 A3006 RMK AO2 SLP177 T01830022
KSQL - San Carlos Airpo, California, USA
Distance from station: NV 34km
Oppdatert: 28/10/2020 06:15
Klart
Klart
 Vind fra NV
Vind: NV 9 km/h
Temperatur: 16°C
Duggpunkt: 0°C
Fuktighet: 34%
Barometer: 1017.9 hPa
Clouds: Klart
Visibility: 16 km
2020/10/28 05:15 KSQL 280515Z AUTO 31005KT 10SM CLR 16/00 A3006 RMK AO2
 
KSFO - San Francisco, California, USA
Distance from station: NV 49km
Oppdatert: 28/10/2020 05:56
Few Clouds
Few Clouds
 Vind fra V
Vind: V 11 km/h
Temperatur: 17°C
Duggpunkt: 2°C
Fuktighet: 37%
Barometer: 1017.6 hPa
Clouds: Few Clouds
Visibility: 16 km
Cloud details: Few Clouds 6096 m
2020/10/28 04:56 KSFO 280456Z 28006KT 10SM FEW200 17/02 A3005 RMK AO2 SLP176 T01670022
KE16 - San Martin, California, USA
Distance from station: ØSØ 43km
Oppdatert: 28/10/2020 06:15
Overskyet
Overskyet
 Vind fra N
Vind: N 6 km/h
Temperatur: 12°C
Duggpunkt: -3°C
Fuktighet: 35%
Barometer: 1019.3 hPa
Clouds: Overskyet
Visibility: 16 km
Cloud details: Few Clouds 853 m
Few Clouds 1006 m
Overskyet 1402 m
2020/10/28 05:15 KE16 280515Z AUTO 36003KT 10SM FEW028 FEW033 OVC046 12/M03 A3010 RMK AO2
 
KWVI - Watsonville, California, USA
Distance from station: SSØ 44km
Oppdatert: 28/10/2020 05:53
Klart
Klart
 Vind fra NNV
Vind: NNV 7 km/h
Temperatur: 11°C
Duggpunkt: 3°C
Fuktighet: 58%
Barometer: 1018.6 hPa
Clouds: Klart
Visibility: 16 km
2020/10/28 04:53 KWVI 280453Z AUTO 33004KT 10SM CLR 11/03 A3008 RMK AO2 SLP185 T01110028
KHAF - Half Moon Bay, California, USA
Distance from station: VNV 50km
Oppdatert: 28/10/2020 06:15
Klart
Klart
 Vind fra calm
Vind: Stille
Temperatur: 8°C
Duggpunkt: 2°C
Fuktighet: 66%
Barometer: 1018.3 hPa
Clouds: Klart
Visibility: 16 km
2020/10/28 05:15 KHAF 280515Z AUTO 00000KT 10SM CLR 08/02 A3007 RMK AO2
 
KHWD - Hayward, California, USA
Distance from station: N 44km
Oppdatert: 28/10/2020 05:54
Klart
Klart
 Vind fra NNØ
Vind: NNØ 6 km/h
Temperatur: 17°C
Duggpunkt: -2°C
Fuktighet: 27%
Barometer: 1017.6 hPa
Clouds: Klart
Visibility: 16 km
2020/10/28 04:54 KHWD 280454Z AUTO 02003KT 10SM CLR 17/M02 A3005 RMK AO2 SLP183 T01671022
KLVK - Livermore, California, USA
Distance from station: NNØ 51km
Oppdatert: 28/10/2020 05:53
Klart
Klart
 Vind fra ØNØ
Vind: ØNØ 9 km/h
Temperatur: 13°C
Duggpunkt: -5°C
Fuktighet: 28%
Barometer: 1017.9 hPa
Clouds: Klart
Visibility: 16 km
2020/10/28 04:53 KLVK 280453Z 07005KT 10SM CLR 13/M05 A3006 RMK AO2 SLP175 T01331050